Terminal Aerodrome Forecast
Issued by NWS Grand Forks, ND

Home | Current Version | Previous Version | Graphics & Text | Print | Product List | Glossary On
Versions: 1 2 3 4 5 6 7 8 9 10 11 12 13 14 15 16
000
FTUS43 KFGF 281725
TAFFAR
TAF
KFAR 281725Z 2818/2918 24015G23KT P6SM SCT030
     FM282100 24025G35KT P6SM SCT040
     FM290600 25022G30KT P6SM BKN035
     FM291300 26025G33KT P6SM SCT040=

USA.gov is the U.S. government's official web portal to all federal, state and local government web resources and services.